Time;durP1;ratioP1;P1;durP2;ratioP2;P2;SDS_P1;SDS_P2;PMS_P1;PMS_P2;Temp;Humidity;BMP_temperature;BMP_pressure;BME280_temperature;BME280_humidity;BME280_pressure;Samples;Min_cycle;Max_cycle;Signal;HPM_P1;HPM_P2
2021/11/29 00:02:06;;;;;;;14.35;7.25;;;17.80;55.90;;;;;;5003149;28;20053;-60
2021/11/29 00:04:32;;;;;;;12.85;7.13;;;17.80;55.90;;;;;;5002912;28;20026;-60
2021/11/29 00:06:57;;;;;;;14.60;6.82;;;17.90;56.00;;;;;;5003288;28;20034;-61
2021/11/29 00:09:23;;;;;;;15.13;7.70;;;17.80;55.90;;;;;;5008207;28;20495;-62
2021/11/29 00:11:48;;;;;;;12.98;6.20;;;17.80;55.90;;;;;;4998782;28;20049;-62
2021/11/29 00:14:14;;;;;;;11.13;6.18;;;17.80;55.90;;;;;;5003926;28;20489;-62
2021/11/29 00:16:39;;;;;;;11.52;5.88;;;17.80;55.80;;;;;;4989278;28;20033;-62
2021/11/29 00:19:05;;;;;;;9.05;5.88;;;17.70;56.10;;;;;;5024439;28;20095;-62
2021/11/29 00:21:32;;;;;;;11.90;5.65;;;17.80;55.80;;;;;;4998566;28;20164;-62
2021/11/29 00:23:57;;;;;;;10.32;5.43;;;17.70;55.80;;;;;;5003037;28;20034;-62
2021/11/29 00:26:23;;;;;;;13.20;5.97;;;17.70;55.80;;;;;;5003488;28;20757;-62
2021/11/29 00:28:48;;;;;;;7.57;5.10;;;17.70;55.80;;;;;;5004591;28;20488;-62
2021/11/29 00:31:14;;;;;;;10.23;6.28;;;17.70;55.80;;;;;;4992449;28;20630;-60
2021/11/29 00:33:39;;;;;;;9.32;5.13;;;17.70;55.80;;;;;;5007717;28;20041;-62
2021/11/29 00:36:05;;;;;;;8.30;5.55;;;17.70;55.70;;;;;;5006552;28;20468;-62
2021/11/29 00:38:31;;;;;;;10.60;5.22;;;17.70;55.70;;;;;;5016876;28;20503;-61
2021/11/29 00:40:56;;;;;;;7.45;4.93;;;17.70;55.70;;;;;;5022464;28;20097;-62
2021/11/29 00:43:22;;;;;;;7.68;4.90;;;17.70;55.60;;;;;;5008267;28;20541;-62
2021/11/29 00:45:47;;;;;;;9.85;5.05;;;17.60;55.60;;;;;;5002959;28;20029;-64
2021/11/29 00:48:13;;;;;;;6.70;4.43;;;17.70;55.80;;;;;;5006034;28;20096;-63
2021/11/29 00:50:38;;;;;;;6.63;4.32;;;17.60;55.70;;;;;;4988685;28;20026;-64
2021/11/29 00:53:08;;;;;;;6.45;4.15;;;17.60;55.70;;;;;;5005929;28;20145;-64
2021/11/29 00:55:34;;;;;;;7.45;4.38;;;17.60;55.70;;;;;;4987340;28;20109;-64
2021/11/29 00:57:59;;;;;;;7.20;4.15;;;17.60;55.70;;;;;;5024288;28;20490;-64
2021/11/29 01:00:27;;;;;;;8.27;4.65;;;17.60;55.60;;;;;;5045295;28;20032;-63
2021/11/29 01:02:52;;;;;;;7.85;3.95;;;17.60;55.60;;;;;;5019080;28;20109;-63
2021/11/29 01:05:18;;;;;;;5.40;3.70;;;17.60;55.60;;;;;;5005200;28;20067;-63
2021/11/29 01:07:43;;;;;;;6.68;4.22;;;17.60;55.60;;;;;;5041992;28;20025;-64
2021/11/29 01:10:13;;;;;;;5.65;3.67;;;17.60;55.70;;;;;;5002150;28;20030;-63
2021/11/29 01:12:39;;;;;;;5.90;4.13;;;17.60;55.60;;;;;;4993934;28;20890;-64
2021/11/29 01:15:05;;;;;;;5.75;3.80;;;17.60;55.60;;;;;;5025215;28;20152;-63
2021/11/29 01:17:31;;;;;;;6.03;3.95;;;17.50;55.60;;;;;;5024069;28;20084;-64
2021/11/29 01:19:56;;;;;;;6.10;4.20;;;17.50;55.60;;;;;;5006148;28;20041;-62
2021/11/29 01:22:22;;;;;;;5.22;3.85;;;17.50;55.60;;;;;;5025127;28;20115;-64
2021/11/29 01:24:47;;;;;;;5.45;3.85;;;17.50;55.60;;;;;;5025926;28;20079;-64
2021/11/29 01:27:13;;;;;;;5.68;3.55;;;17.50;55.60;;;;;;5025187;28;20407;-64
2021/11/29 01:29:38;;;;;;;5.30;3.85;;;17.50;55.60;;;;;;5007224;28;20037;-63
2021/11/29 01:32:04;;;;;;;4.80;3.40;;;17.50;55.60;;;;;;5025354;28;20036;-63
2021/11/29 01:34:30;;;;;;;4.22;3.53;;;17.50;55.60;;;;;;5024168;28;20037;-63
2021/11/29 01:36:56;;;;;;;5.85;3.58;;;17.40;55.50;;;;;;5025386;28;20041;-64
2021/11/29 01:39:21;;;;;;;4.53;3.65;;;17.40;55.60;;;;;;5007374;28;20037;-63
2021/11/29 01:41:47;;;;;;;4.93;3.30;;;17.40;55.60;;;;;;5024805;28;20153;-63
2021/11/29 01:44:12;;;;;;;5.85;3.38;;;17.40;55.70;;;;;;5024068;28;20117;-64
2021/11/29 01:46:38;;;;;;;5.28;3.47;;;17.40;55.70;;;;;;5024861;28;20028;-61
2021/11/29 01:49:04;;;;;;;3.47;3.17;;;17.30;55.60;;;;;;5024938;28;20063;-62
2021/11/29 01:51:29;;;;;;;5.65;3.50;;;17.30;55.60;;;;;;5024333;28;20063;-63
2021/11/29 01:53:55;;;;;;;4.82;3.47;;;17.30;55.60;;;;;;5024870;28;20127;-63
2021/11/29 01:56:20;;;;;;;3.92;3.22;;;17.30;55.60;;;;;;5025591;28;20117;-62
2021/11/29 01:58:46;;;;;;;5.18;3.03;;;17.30;55.60;;;;;;5004582;28;20061;-64
2021/11/29 02:01:14;;;;;;;5.22;3.22;;;17.30;55.60;;;;;;4993432;28;20044;-63
2021/11/29 02:03:41;;;;;;;3.80;2.92;;;17.30;55.60;;;;;;5024959;28;20687;-64
2021/11/29 02:06:07;;;;;;;3.15;2.83;;;17.20;55.60;;;;;;5024816;28;20030;-63
2021/11/29 02:08:32;;;;;;;4.70;3.28;;;17.20;55.60;;;;;;5024109;28;20109;-62
2021/11/29 02:10:58;;;;;;;3.85;2.92;;;17.20;55.60;;;;;;5024187;28;20660;-64
2021/11/29 02:13:23;;;;;;;5.30;3.17;;;17.20;55.70;;;;;;5022991;28;20037;-63
2021/11/29 02:15:52;;;;;;;4.32;3.00;;;17.20;55.60;;;;;;4994874;28;20109;-64
2021/11/29 02:18:21;;;;;;;4.65;3.58;;;17.20;55.70;;;;;;5006904;28;20124;-63
2021/11/29 02:21:00;;;;;;;3.70;2.63;;;17.20;55.60;;;;;;5023644;28;20060;-62
2021/11/29 02:23:26;;;;;;;3.35;2.80;;;17.30;55.50;;;;;;5024118;28;20030;-63
2021/11/29 02:25:51;;;;;;;3.88;3.08;;;17.40;55.20;;;;;;5024222;28;20030;-64
2021/11/29 02:28:20;;;;;;;4.40;2.97;;;17.50;54.90;;;;;;5023542;28;20037;-63
2021/11/29 02:30:46;;;;;;;3.75;2.80;;;17.60;54.60;;;;;;5005668;28;20104;-63
2021/11/29 02:33:12;;;;;;;3.33;2.50;;;17.70;54.50;;;;;;5022512;28;20112;-63
2021/11/29 02:35:37;;;;;;;3.60;3.08;;;17.80;54.40;;;;;;5023698;28;20104;-63
2021/11/29 02:38:05;;;;;;;3.53;2.83;;;17.80;54.40;;;;;;5023524;28;20124;-63
2021/11/29 02:40:31;;;;;;;4.28;2.63;;;17.80;54.50;;;;;;5022492;28;20065;-63
2021/11/29 02:42:57;;;;;;;2.80;2.55;;;17.80;54.60;;;;;;5005415;28;20034;-64
2021/11/29 02:45:22;;;;;;;3.38;2.45;;;17.90;54.70;;;;;;5022880;28;20033;-62
2021/11/29 02:47:48;;;;;;;3.53;2.70;;;17.90;54.70;;;;;;5023776;28;20081;-63
2021/11/29 02:50:13;;;;;;;3.70;2.50;;;17.90;54.80;;;;;;5023126;28;20561;-64
2021/11/29 02:52:40;;;;;;;2.47;2.28;;;17.90;54.70;;;;;;5006075;28;20558;-63
2021/11/29 02:55:08;;;;;;;2.92;2.47;;;18.00;54.70;;;;;;5006703;28;20072;-63
2021/11/29 02:57:33;;;;;;;3.08;2.38;;;18.10;54.60;;;;;;5022746;28;20033;-63
2021/11/29 02:59:59;;;;;;;3.95;2.50;;;18.10;54.60;;;;;;5032391;23;20499;-56
2021/11/29 03:02:26;;;;;;;4.35;3.03;;;18.10;54.50;;;;;;5018541;28;20026;-53
2021/11/29 03:04:52;;;;;;;3.13;2.30;;;18.20;54.50;;;;;;5020611;28;20033;-53
2021/11/29 03:07:17;;;;;;;3.25;2.70;;;18.20;54.40;;;;;;5002183;28;20030;-50
2021/11/29 03:09:43;;;;;;;2.90;2.30;;;18.20;54.50;;;;;;5018773;28;20044;-53
2021/11/29 03:12:09;;;;;;;3.08;2.38;;;18.20;54.40;;;;;;5017306;28;20064;-50
2021/11/29 03:14:34;;;;;;;3.67;2.53;;;18.20;54.50;;;;;;5021738;28;20682;-54
2021/11/29 03:17:02;;;;;;;2.83;2.28;;;18.20;54.50;;;;;;5004403;28;20053;-55
2021/11/29 03:19:31;;;;;;;3.33;2.00;;;18.10;54.50;;;;;;5003024;28;20421;-58
2021/11/29 03:21:57;;;;;;;3.97;2.20;;;18.20;54.60;;;;;;5003801;28;20033;-50
2021/11/29 03:24:23;;;;;;;2.72;2.47;;;18.10;54.60;;;;;;5021869;28;20422;-59
2021/11/29 03:26:48;;;;;;;3.78;2.53;;;18.10;54.50;;;;;;5020452;28;20092;-57
2021/11/29 03:29:15;;;;;;;3.65;2.50;;;18.10;54.50;;;;;;5021693;28;20029;-56
2021/11/29 03:31:40;;;;;;;2.67;2.20;;;18.10;54.40;;;;;;5003965;28;20033;-56
2021/11/29 03:34:08;;;;;;;2.75;2.30;;;18.10;54.40;;;;;;5003809;28;20038;-54
2021/11/29 03:36:34;;;;;;;2.70;2.08;;;18.00;54.30;;;;;;5022054;28;20033;-53
2021/11/29 03:39:00;;;;;;;2.30;2.10;;;18.10;54.80;;;;;;5021105;28;20041;-54
2021/11/29 03:41:26;;;;;;;2.60;2.40;;;18.10;54.10;;;;;;5004099;28;20092;-52
2021/11/29 03:43:51;;;;;;;2.50;2.05;;;18.10;54.00;;;;;;5021691;28;20109;-54
2021/11/29 03:46:17;;;;;;;2.42;2.20;;;18.10;53.80;;;;;;5021198;28;20548;-52
2021/11/29 03:48:42;;;;;;;2.40;2.05;;;18.10;53.80;;;;;;5004052;28;20056;-48
2021/11/29 03:51:08;;;;;;;3.55;2.53;;;18.10;53.70;;;;;;5021185;28;20088;-52
2021/11/29 03:53:34;;;;;;;2.30;2.10;;;18.10;53.60;;;;;;5021344;28;20049;-57
2021/11/29 03:55:59;;;;;;;2.78;2.25;;;18.10;53.60;;;;;;5003588;28;20045;-49
2021/11/29 03:58:25;;;;;;;2.92;2.22;;;18.10;53.50;;;;;;5021111;28;20018;-47
2021/11/29 04:00:50;;;;;;;2.42;2.00;;;18.10;53.40;;;;;;5004157;28;20151;-49
2021/11/29 04:03:16;;;;;;;2.25;2.05;;;18.00;53.40;;;;;;5003690;28;20430;-60
2021/11/29 04:05:41;;;;;;;2.92;2.08;;;18.00;53.50;;;;;;5021281;28;20018;-47
2021/11/29 04:08:07;;;;;;;2.40;2.20;;;18.00;53.50;;;;;;5021259;28;20556;-53
2021/11/29 04:10:33;;;;;;;2.50;2.20;;;18.00;53.40;;;;;;5007119;28;20057;-56
2021/11/29 04:12:58;;;;;;;2.50;2.20;;;18.00;53.30;;;;;;5024693;28;20116;-56
2021/11/29 04:15:24;;;;;;;2.63;2.42;;;18.00;53.10;;;;;;5025321;28;20510;-52
2021/11/29 04:17:49;;;;;;;2.33;1.88;;;17.90;53.10;;;;;;5007886;28;20040;-54
2021/11/29 04:20:16;;;;;;;2.60;2.17;;;17.90;53.30;;;;;;5024022;28;20037;-57
2021/11/29 04:22:45;;;;;;;2.40;2.20;;;17.90;53.10;;;;;;4990656;28;20036;-58
2021/11/29 04:25:11;;;;;;;2.35;2.13;;;17.90;53.20;;;;;;5025194;28;20042;-58
2021/11/29 04:27:37;;;;;;;2.53;2.03;;;17.90;53.00;;;;;;4990712;28;20041;-58
2021/11/29 04:30:05;;;;;;;2.90;2.30;;;17.80;53.20;;;;;;5005745;28;20384;-58
2021/11/29 04:32:31;;;;;;;2.30;2.10;;;17.80;53.20;;;;;;5024786;28;20029;-52
2021/11/29 04:34:57;;;;;;;2.65;2.20;;;17.80;53.20;;;;;;5025028;28;20084;-56
2021/11/29 04:37:22;;;;;;;3.35;2.45;;;17.80;53.20;;;;;;5007046;28;20037;-54
2021/11/29 04:39:48;;;;;;;2.70;2.50;;;17.80;53.30;;;;;;5006513;28;20033;-58
2021/11/29 04:42:13;;;;;;;2.63;2.10;;;17.80;53.30;;;;;;5024702;28;20474;-57
2021/11/29 04:44:39;;;;;;;2.80;2.13;;;17.70;53.30;;;;;;5024733;28;20033;-55
2021/11/29 04:47:04;;;;;;;2.70;2.10;;;17.70;53.30;;;;;;5024706;28;20033;-54
2021/11/29 04:49:30;;;;;;;3.70;2.28;;;17.70;53.30;;;;;;4996627;28;20052;-55
2021/11/29 04:51:55;;;;;;;2.30;2.10;;;17.70;53.40;;;;;;5028287;28;20095;-54
2021/11/29 04:54:21;;;;;;;2.90;2.25;;;17.70;53.50;;;;;;5025899;28;20041;-56
2021/11/29 04:56:46;;;;;;;2.38;2.17;;;17.60;53.40;;;;;;5024271;28;20049;-52
2021/11/29 04:59:12;;;;;;;2.67;2.30;;;17.60;53.40;;;;;;5023177;28;20045;-56
2021/11/29 05:01:38;;;;;;;2.35;2.10;;;17.60;53.40;;;;;;5024204;28;20564;-54
2021/11/29 05:04:03;;;;;;;3.80;2.40;;;17.60;53.50;;;;;;5024370;28;20033;-51
2021/11/29 05:06:29;;;;;;;2.35;2.13;;;17.60;53.50;;;;;;5007471;28;20054;-49
2021/11/29 05:08:54;;;;;;;2.55;2.35;;;17.70;53.40;;;;;;5004211;28;20550;-51
2021/11/29 05:11:20;;;;;;;2.22;2.03;;;17.70;53.30;;;;;;5005996;28;20026;-57
2021/11/29 05:13:45;;;;;;;2.00;1.90;;;17.80;53.20;;;;;;5019464;28;20048;-53
2021/11/29 05:16:12;;;;;;;2.38;1.95;;;17.80;53.10;;;;;;4995649;28;20491;-55
2021/11/29 05:18:37;;;;;;;3.67;2.25;;;17.90;53.00;;;;;;4979120;28;20085;-57
2021/11/29 05:21:03;;;;;;;2.78;2.20;;;18.00;52.90;;;;;;5009303;28;20026;-54
2021/11/29 05:23:28;;;;;;;4.18;2.33;;;18.00;52.90;;;;;;5001248;28;20499;-52
2021/11/29 05:25:54;;;;;;;2.70;1.85;;;18.10;52.90;;;;;;5020721;28;20033;-56
2021/11/29 05:28:19;;;;;;;2.30;2.08;;;18.10;52.90;;;;;;5023735;28;20026;-55
2021/11/29 05:30:45;;;;;;;2.25;1.85;;;18.10;53.50;;;;;;5005883;28;20036;-54
2021/11/29 05:33:10;;;;;;;2.90;2.40;;;18.10;53.10;;;;;;5030640;28;20034;-50
2021/11/29 05:35:36;;;;;;;4.30;3.30;;;18.10;53.30;;;;;;5004245;28;20040;-56
2021/11/29 05:38:01;;;;;;;4.53;3.70;;;18.10;53.40;;;;;;5004340;28;20113;-55
2021/11/29 05:40:27;;;;;;;4.50;3.60;;;18.10;53.50;;;;;;5003996;28;20030;-51
2021/11/29 05:42:53;;;;;;;5.30;3.72;;;18.10;53.60;;;;;;5011134;28;20030;-48
2021/11/29 05:45:18;;;;;;;5.65;3.83;;;18.10;53.60;;;;;;4981897;28;20030;-48
2021/11/29 05:47:44;;;;;;;4.50;3.83;;;18.10;53.60;;;;;;5041659;28;20018;-50
2021/11/29 05:50:10;;;;;;;5.65;3.60;;;18.10;53.70;;;;;;5020427;28;20034;-52
2021/11/29 05:52:36;;;;;;;6.28;3.78;;;18.10;53.60;;;;;;4969995;28;20030;-51
2021/11/29 05:55:01;;;;;;;4.85;3.70;;;18.10;53.60;;;;;;5003727;28;20044;-53
2021/11/29 05:57:27;;;;;;;6.20;3.88;;;18.10;53.60;;;;;;5002105;28;20082;-50
2021/11/29 05:59:53;;;;;;;6.32;3.63;;;18.10;53.70;;;;;;5033512;28;20034;-55
2021/11/29 06:02:18;;;;;;;7.25;3.80;;;18.20;53.70;;;;;;5002022;28;20026;-56
2021/11/29 06:04:44;;;;;;;7.93;3.53;;;18.20;53.60;;;;;;4989474;28;20033;-56
2021/11/29 06:07:09;;;;;;;7.35;3.40;;;18.20;53.60;;;;;;5015565;28;20034;-52
2021/11/29 06:09:35;;;;;;;6.93;2.97;;;18.20;53.60;;;;;;5002911;28;20526;-56
2021/11/29 06:12:00;;;;;;;6.25;3.25;;;18.10;53.50;;;;;;5003058;28;20247;-56
2021/11/29 06:14:26;;;;;;;4.10;2.80;;;18.10;53.60;;;;;;4990559;28;20034;-59
2021/11/29 06:16:55;;;;;;;8.13;2.92;;;18.10;53.50;;;;;;5009588;28;20029;-51
2021/11/29 06:19:20;;;;;;;6.78;2.95;;;18.10;53.50;;;;;;5015960;28;20030;-57
2021/11/29 06:21:46;;;;;;;6.30;4.28;;;18.10;53.50;;;;;;5002081;28;20046;-51
2021/11/29 06:24:11;;;;;;;14.40;7.55;;;18.10;54.00;;;;;;4980288;28;20100;-52
2021/11/29 06:26:37;;;;;;;18.95;6.75;;;18.10;54.50;;;;;;5014347;28;20124;-57
2021/11/29 06:29:03;;;;;;;9.73;6.15;;;18.20;54.80;;;;;;5001043;28;20034;-53
2021/11/29 06:31:29;;;;;;;11.40;6.45;;;18.20;55.00;;;;;;5011480;28;20112;-57
2021/11/29 06:33:55;;;;;;;10.35;6.15;;;18.10;55.00;;;;;;5008283;28;20113;-52
2021/11/29 06:36:20;;;;;;;9.25;6.22;;;18.10;54.90;;;;;;5020822;28;20082;-53
2021/11/29 06:38:47;;;;;;;12.05;5.85;;;18.10;54.80;;;;;;5008578;28;20041;-56
2021/11/29 06:41:12;;;;;;;10.65;5.47;;;18.10;54.80;;;;;;5001789;28;20044;-54
2021/11/29 06:43:38;;;;;;;10.45;5.65;;;18.10;54.60;;;;;;5000767;28;20058;-53
2021/11/29 06:46:04;;;;;;;9.38;5.35;;;18.00;54.20;;;;;;5002841;28;20533;-54
2021/11/29 06:48:29;;;;;;;8.15;6.07;;;18.00;53.90;;;;;;5003930;28;20462;-54
2021/11/29 06:50:56;;;;;;;9.02;5.90;;;18.00;53.80;;;;;;5022238;28;20037;-54
2021/11/29 06:53:23;;;;;;;7.13;6.22;;;17.90;53.80;;;;;;5003930;28;20033;-50
2021/11/29 06:55:48;;;;;;;7.43;6.45;;;17.90;53.30;;;;;;5013605;28;20110;-51
2021/11/29 06:58:14;;;;;;;10.10;6.38;;;17.90;52.90;;;;;;5021837;28;20510;-54
2021/11/29 07:00:40;;;;;;;8.45;6.53;;;17.80;52.50;;;;;;5013026;28;20033;-53
2021/11/29 07:03:06;;;;;;;9.63;6.15;;;17.80;52.30;;;;;;5021859;28;20025;-54
2021/11/29 07:05:31;;;;;;;9.38;5.97;;;17.70;52.10;;;;;;5023664;28;20054;-57
2021/11/29 07:07:57;;;;;;;10.75;6.30;;;17.70;51.80;;;;;;5005690;28;20022;-52
2021/11/29 07:10:24;;;;;;;8.00;5.75;;;17.70;51.60;;;;;;5021934;28;20447;-51
2021/11/29 07:12:51;;;;;;;9.13;4.70;;;17.70;51.60;;;;;;5021947;28;20398;-52
2021/11/29 07:15:17;;;;;;;6.07;4.60;;;17.70;51.50;;;;;;5022252;28;20048;-54
2021/11/29 07:17:43;;;;;;;7.47;4.65;;;17.70;51.60;;;;;;5004996;28;20022;-50
2021/11/29 07:20:09;;;;;;;8.70;4.40;;;17.60;51.70;;;;;;5017402;28;20033;-51
2021/11/29 07:22:34;;;;;;;9.80;4.40;;;17.60;51.70;;;;;;5021182;28;20679;-51
2021/11/29 07:25:04;;;;;;;9.63;4.43;;;17.60;51.80;;;;;;5021722;28;20030;-54
2021/11/29 07:27:30;;;;;;;8.02;3.78;;;17.60;52.00;;;;;;5022127;28;20509;-58
2021/11/29 07:29:56;;;;;;;4.72;3.50;;;17.50;52.00;;;;;;5004355;28;20063;-49
2021/11/29 07:32:22;;;;;;;6.18;3.88;;;17.50;52.10;;;;;;4989430;28;20117;-52
2021/11/29 07:34:47;;;;;;;5.63;3.50;;;17.50;52.20;;;;;;5007483;28;20034;-52
2021/11/29 07:37:15;;;;;;;7.47;2.65;;;17.50;52.30;;;;;;5000936;28;20038;-55
2021/11/29 07:39:42;;;;;;;7.38;3.08;;;17.50;52.40;;;;;;5001700;28;20085;-55
2021/11/29 07:42:08;;;;;;;4.13;3.03;;;17.50;52.50;;;;;;5001619;28;20045;-53
2021/11/29 07:44:33;;;;;;;7.13;2.85;;;17.50;52.60;;;;;;5000583;28;20029;-57
2021/11/29 07:46:59;;;;;;;7.00;3.25;;;17.40;52.80;;;;;;5002808;28;20034;-53
2021/11/29 07:49:24;;;;;;;7.32;3.13;;;17.50;53.00;;;;;;5036397;28;20071;-55
2021/11/29 07:51:50;;;;;;;13.82;3.42;;;17.50;53.00;;;;;;5010560;28;20536;-52
2021/11/29 07:54:15;;;;;;;5.93;2.60;;;17.50;53.00;;;;;;5004320;28;20065;-56
2021/11/29 07:56:41;;;;;;;7.10;3.67;;;17.50;53.00;;;;;;5004496;28;20037;-52
2021/11/29 07:59:06;;;;;;;7.50;3.53;;;17.60;52.90;;;;;;4971407;28;20027;-53
2021/11/29 08:01:32;;;;;;;6.60;3.10;;;17.70;52.80;;;;;;5008424;28;20058;-54
2021/11/29 08:03:57;;;;;;;3.70;2.80;;;17.70;52.70;;;;;;4987693;28;20038;-56
2021/11/29 08:06:23;;;;;;;12.57;3.10;;;17.80;52.60;;;;;;5003009;28;20038;-52
2021/11/29 08:08:48;;;;;;;6.95;2.70;;;17.80;52.60;;;;;;5004990;28;20026;-53
2021/11/29 08:11:14;;;;;;;6.70;3.00;;;17.80;52.50;;;;;;5001736;28;20069;-53
2021/11/29 08:13:39;;;;;;;4.35;3.35;;;17.80;52.60;;;;;;5005197;28;20487;-53
2021/11/29 08:16:05;;;;;;;3.50;2.35;;;17.80;52.70;;;;;;5005525;28;20084;-54
2021/11/29 08:18:30;;;;;;;4.30;2.53;;;17.90;52.80;;;;;;5000250;28;20522;-60
2021/11/29 08:20:56;;;;;;;5.10;2.35;;;17.90;52.80;;;;;;5034703;28;20047;-53
2021/11/29 08:23:22;;;;;;;2.95;2.50;;;17.90;52.80;;;;;;5004166;28;20083;-51
2021/11/29 08:25:47;;;;;;;5.47;3.17;;;17.90;52.90;;;;;;5003162;28;20036;-52
2021/11/29 08:28:13;;;;;;;5.18;2.78;;;17.90;52.80;;;;;;5009946;28;20069;-55
2021/11/29 08:30:39;;;;;;;5.50;2.78;;;17.90;52.80;;;;;;5026360;28;20547;-49
2021/11/29 08:33:04;;;;;;;5.35;2.60;;;18.00;52.80;;;;;;5015993;28;20048;-50
2021/11/29 08:35:30;;;;;;;3.17;2.75;;;18.00;52.70;;;;;;5018311;28;20037;-54
2021/11/29 08:37:58;;;;;;;3.38;2.03;;;18.00;52.70;;;;;;5014628;28;20380;-54
2021/11/29 08:40:26;;;;;;;7.18;2.35;;;18.10;52.70;;;;;;5006150;28;20033;-55
2021/11/29 08:42:56;;;;;;;2.85;2.15;;;18.10;52.70;;;;;;5025001;28;20029;-53
2021/11/29 08:45:22;;;;;;;5.72;2.40;;;18.10;52.70;;;;;;5006475;28;20067;-51
2021/11/29 08:47:47;;;;;;;3.38;2.25;;;18.10;52.80;;;;;;5006249;28;20084;-53
2021/11/29 08:50:13;;;;;;;4.18;2.30;;;18.10;53.40;;;;;;5020970;28;20029;-56
2021/11/29 08:52:39;;;;;;;3.28;2.50;;;18.10;52.70;;;;;;5006112;28;20083;-51
2021/11/29 08:55:06;;;;;;;2.42;2.22;;;18.10;52.70;;;;;;5023233;28;20571;-52
2021/11/29 08:57:31;;;;;;;3.05;1.92;;;18.10;52.70;;;;;;5005642;28;20399;-55
2021/11/29 08:59:57;;;;;;;4.15;2.10;;;18.00;52.70;;;;;;5023113;28;20033;-53
2021/11/29 09:02:22;;;;;;;2.55;2.08;;;18.00;52.80;;;;;;5013071;23;20049;-55
2021/11/29 09:04:48;;;;;;;3.40;2.20;;;18.00;52.80;;;;;;5020286;28;20026;-60
2021/11/29 09:07:14;;;;;;;3.38;2.53;;;18.00;52.80;;;;;;5021423;28;20057;-57
2021/11/29 09:09:39;;;;;;;2.95;2.40;;;18.00;52.80;;;;;;5021084;28;20030;-56
2021/11/29 09:12:05;;;;;;;5.03;2.38;;;17.90;52.80;;;;;;5020704;28;20036;-52
2021/11/29 09:14:31;;;;;;;3.95;1.92;;;17.90;52.70;;;;;;5021159;28;20501;-57
2021/11/29 09:16:57;;;;;;;3.53;2.53;;;18.00;52.70;;;;;;5021832;28;20049;-59
2021/11/29 09:19:23;;;;;;;2.42;2.10;;;18.00;52.50;;;;;;5022451;28;20026;-56
2021/11/29 09:21:48;;;;;;;2.83;2.50;;;18.00;52.40;;;;;;5022807;28;20029;-57
2021/11/29 09:24:14;;;;;;;2.15;1.92;;;18.00;52.40;;;;;;5021950;28;20033;-50
2021/11/29 09:26:39;;;;;;;3.88;1.98;;;17.90;52.30;;;;;;5022422;28;20033;-55
2021/11/29 09:29:05;;;;;;;2.67;2.30;;;17.90;52.30;;;;;;5022623;28;20041;-56
2021/11/29 09:31:31;;;;;;;2.60;2.03;;;17.90;52.30;;;;;;5006236;28;20112;-53
2021/11/29 09:33:56;;;;;;;2.30;2.10;;;17.90;53.00;;;;;;5022570;28;20634;-54
2021/11/29 09:36:22;;;;;;;2.53;2.33;;;17.90;52.50;;;;;;5023029;28;20128;-54
2021/11/29 09:38:47;;;;;;;2.38;2.17;;;17.90;52.50;;;;;;5022677;28;20025;-59
2021/11/29 09:41:13;;;;;;;3.08;2.10;;;17.90;52.60;;;;;;5022946;28;20045;-61
2021/11/29 09:43:39;;;;;;;2.95;2.10;;;17.80;52.60;;;;;;5021294;28;20037;-49
2021/11/29 09:46:06;;;;;;;3.25;2.40;;;17.80;52.70;;;;;;5022290;28;20056;-55
2021/11/29 09:48:32;;;;;;;3.85;2.30;;;17.80;52.60;;;;;;5022075;28;20049;-60
2021/11/29 09:50:58;;;;;;;2.60;2.17;;;17.80;52.60;;;;;;5022277;28;20536;-58
2021/11/29 09:53:25;;;;;;;3.55;2.22;;;17.80;52.60;;;;;;5021741;28;20033;-58
2021/11/29 09:55:51;;;;;;;2.47;2.28;;;17.80;52.50;;;;;;4988781;28;20021;-53
2021/11/29 09:58:16;;;;;;;3.45;2.40;;;17.80;52.60;;;;;;5021751;28;20176;-60
2021/11/29 10:00:48;;;;;;;2.53;2.25;;;17.70;52.50;;;;;;5003745;28;20033;-60
2021/11/29 10:03:14;;;;;;;2.65;2.22;;;17.70;52.60;;;;;;5021481;28;20036;-58
2021/11/29 10:05:40;;;;;;;2.92;1.95;;;17.70;52.60;;;;;;5021316;28;20033;-56
2021/11/29 10:08:35;;;;;;;2.22;2.00;;;17.70;52.60;;;;;;5021616;28;20055;-59
2021/11/29 10:11:06;;;;;;;2.20;1.77;;;17.70;52.60;;;;;;5004726;28;20037;-57
2021/11/29 10:13:57;;;;;;;2.15;1.73;;;17.70;52.70;;;;;;5011330;28;20036;-54
2021/11/29 10:16:39;;;;;;;2.55;2.15;;;17.60;52.60;;;;;;5022135;28;20060;-57
2021/11/29 10:19:35;;;;;;;2.63;2.15;;;17.60;52.70;;;;;;5021279;28;20034;-53
2021/11/29 10:22:17;;;;;;;2.42;2.15;;;17.60;52.70;;;;;;5014055;28;20022;-54
2021/11/29 10:24:43;;;;;;;2.25;2.05;;;17.60;52.70;;;;;;5021597;28;20100;-56
2021/11/29 10:27:09;;;;;;;2.83;2.20;;;17.60;52.70;;;;;;4987924;28;20160;-57
2021/11/29 10:29:34;;;;;;;2.47;2.10;;;17.60;52.60;;;;;;5021291;28;20040;-55
2021/11/29 10:32:00;;;;;;;2.15;1.95;;;17.70;52.50;;;;;;5018433;28;20589;-54
2021/11/29 10:34:28;;;;;;;2.30;2.08;;;17.70;52.40;;;;;;5021403;28;20445;-55
2021/11/29 10:36:57;;;;;;;2.30;2.10;;;17.70;52.50;;;;;;5004504;28;20577;-55
2021/11/29 10:39:25;;;;;;;1.98;1.67;;;17.80;52.60;;;;;;5004432;28;20038;-57
2021/11/29 10:41:54;;;;;;;2.35;2.15;;;17.70;52.40;;;;;;5003751;28;20488;-59
2021/11/29 10:44:21;;;;;;;2.53;2.30;;;17.80;52.40;;;;;;5021805;28;20038;-54
2021/11/29 10:46:49;;;;;;;2.40;1.95;;;17.80;52.40;;;;;;5004432;28;20082;-54
2021/11/29 10:49:16;;;;;;;1.80;1.67;;;17.80;52.30;;;;;;5021395;28;20041;-52
2021/11/29 10:51:43;;;;;;;2.42;2.22;;;17.80;52.30;;;;;;5021140;28;20060;-58
2021/11/29 10:54:11;;;;;;;2.35;1.98;;;17.80;52.30;;;;;;4994573;28;20098;-52
2021/11/29 10:56:37;;;;;;;2.22;2.03;;;17.80;52.30;;;;;;5020204;28;20029;-49
2021/11/29 10:59:04;;;;;;;2.72;1.95;;;17.80;52.30;;;;;;5003881;28;20034;-55
2021/11/29 11:01:40;;;;;;;1.98;1.80;;;17.80;52.40;;;;;;5003712;28;20044;-56
2021/11/29 11:04:11;;;;;;;2.08;1.88;;;17.80;52.40;;;;;;5012171;28;20068;-59
2021/11/29 11:06:38;;;;;;;2.20;1.88;;;17.70;52.40;;;;;;5021130;28;20045;-53
2021/11/29 11:09:24;;;;;;;2.15;1.83;;;17.70;52.40;;;;;;5021255;28;20045;-58
2021/11/29 11:12:00;;;;;;;1.88;1.70;;;17.70;52.40;;;;;;5021059;28;20124;-50
2021/11/29 11:14:30;;;;;;;1.70;1.45;;;17.60;52.40;;;;;;5021504;28;20036;-60
2021/11/29 11:17:00;;;;;;;2.35;2.00;;;17.60;52.40;;;;;;5024769;28;20041;-50
2021/11/29 11:19:31;;;;;;;2.13;1.92;;;17.60;52.40;;;;;;4993712;28;20029;-50
2021/11/29 11:21:58;;;;;;;2.38;2.17;;;17.60;52.50;;;;;;4994036;28;20049;-55
2021/11/29 11:24:26;;;;;;;2.53;2.20;;;17.70;52.50;;;;;;5001447;28;20038;-48
2021/11/29 11:26:55;;;;;;;1.70;1.60;;;17.70;52.40;;;;;;5001342;28;20030;-50
2021/11/29 11:29:53;;;;;;;2.42;1.70;;;17.70;52.30;;;;;;5000941;28;20030;-53
2021/11/29 11:32:25;;;;;;;1.60;1.40;;;17.70;52.40;;;;;;5006927;28;20034;-52
2021/11/29 11:35:03;;;;;;;1.95;1.73;;;17.70;52.40;;;;;;5020463;28;20068;-60
2021/11/29 11:37:33;;;;;;;1.70;1.60;;;17.70;52.40;;;;;;5007070;28;20030;-51
2021/11/29 11:39:59;;;;;;;2.08;1.65;;;17.70;52.40;;;;;;5020651;28;20113;-57
2021/11/29 11:42:25;;;;;;;1.80;1.70;;;17.70;52.50;;;;;;5002910;28;20116;-57
2021/11/29 11:44:51;;;;;;;1.80;1.70;;;17.70;52.40;;;;;;4987356;28;20031;-54
2021/11/29 11:47:16;;;;;;;2.00;1.80;;;17.80;52.40;;;;;;5036024;28;20032;-53
2021/11/29 11:49:43;;;;;;;2.00;1.70;;;17.80;52.40;;;;;;5021375;28;20025;-52
2021/11/29 11:52:11;;;;;;;1.67;1.52;;;17.80;52.30;;;;;;5002974;28;20057;-50
2021/11/29 11:54:40;;;;;;;1.98;1.67;;;17.80;52.30;;;;;;5000784;28;20037;-52
2021/11/29 11:57:05;;;;;;;2.30;1.63;;;17.80;52.20;;;;;;5001383;28;20419;-53
2021/11/29 11:59:42;;;;;;;2.10;1.60;;;17.80;52.20;;;;;;4959907;28;20030;-52
2021/11/29 12:02:07;;;;;;;2.70;1.60;;;17.80;52.20;;;;;;4995989;28;20739;-53
2021/11/29 12:04:33;;;;;;;2.00;1.80;;;17.80;52.20;;;;;;5001435;28;20121;-50
2021/11/29 12:06:59;;;;;;;2.28;1.25;;;17.80;52.20;;;;;;5004345;28;20518;-52
2021/11/29 12:09:29;;;;;;;1.60;1.50;;;17.80;52.30;;;;;;4996878;28;20049;-49
2021/11/29 12:12:02;;;;;;;1.70;1.60;;;17.80;52.20;;;;;;5000525;28;20048;-59
2021/11/29 12:14:32;;;;;;;1.90;1.70;;;17.80;52.30;;;;;;5000933;28;20151;-54
2021/11/29 12:17:12;;;;;;;1.48;1.38;;;17.80;52.20;;;;;;4996894;28;20504;-55
2021/11/29 12:19:41;;;;;;;2.17;1.70;;;17.80;52.30;;;;;;5000581;28;20049;-50
2021/11/29 12:22:15;;;;;;;3.08;1.45;;;17.80;52.20;;;;;;5008689;28;20033;-56
2021/11/29 12:24:43;;;;;;;1.92;1.83;;;17.80;52.30;;;;;;5002261;28;20034;-55
2021/11/29 12:27:10;;;;;;;1.70;1.50;;;17.80;52.30;;;;;;5000986;28;20402;-55
2021/11/29 12:29:38;;;;;;;1.38;1.27;;;17.80;52.30;;;;;;5001442;28;20030;-55
2021/11/29 12:32:04;;;;;;;2.22;1.30;;;17.80;52.30;;;;;;5004593;28;20693;-56
2021/11/29 12:34:49;;;;;;;1.67;1.45;;;17.80;52.20;;;;;;5024580;28;20033;-55
2021/11/29 12:37:34;;;;;;;2.35;1.40;;;17.80;52.30;;;;;;5013672;28;20089;-54
2021/11/29 12:39:59;;;;;;;1.50;1.25;;;17.80;52.20;;;;;;5019956;28;20746;-53
2021/11/29 12:42:28;;;;;;;1.40;1.30;;;17.70;52.20;;;;;;5005364;28;20108;-50
2021/11/29 12:44:54;;;;;;;1.60;1.20;;;17.80;52.20;;;;;;5004317;28;20055;-48